Kenmore, WA (98028)

2:09 PM PST on February 22, 2017 (GMT -0800)
Finn Hill | | Change Station

Elev 440 ft 47.74 °N, 122.23 °W | Updated 23 seconds ago

Mostly Cloudy
Mostly Cloudy
45.4 °F
Feels Like 45.4 °F
N
2.0
Wind Variable Wind from SSE
Gusts 6.0 mph

Today
High -- | Low -- °F
--% Chance of Precip.
Yesterday
High -- | Low -- °F
Precip. -- in
Pressure 30.18 in
Visibility 10.0 miles
Clouds Scattered Clouds 3000 ft
Dew Point 35.1 °F
Humidity 67%
Rainfall 0.00 in
Snow Depth Not available.
7:01 AM 5:43 PM
Waning Crescent, 15% visible
METAR KPAE 222153Z 20006KT 10SM SCT030 06/02 A3017 RMK AO2 SLP220 T00560017
Pressure 30.18 in
Visibility 10.0 miles
Clouds Scattered Clouds 3000 ft
Dew Point 35.1 °F
Humidity 67%
Rainfall 0.00 in
Snow Depth Not available.
7:01 AM 5:43 PM
Waning Crescent, 15% visible
METAR KPAE 222153Z 20006KT 10SM SCT030 06/02 A3017 RMK AO2 SLP220 T00560017

Get Your Daily Forecast Email!

Thanks for signing up!

Be on the lookout for a verification email in your inbox.

You'll start receiving the daily forecast at 8 AM.

×

10-Day Weather Forecast

Almanac

Astronomy

Feb. 22, 2017 Rise Set
Actual Time
Civil Twilight
Nautical Twilight
Astronomical Twilight
Moon
Length of Visible Light
Length of Day
Tomorrow will be .
, % of the Moon is Illuminated

Today's Extremes

State Highs State Lows

Community

WunderPhotos

Upload Photos

1,962,540 photos uploaded!

WunderBlog® & News

Nearby

Air Quality

  Air Quality AQ Index Pollutant
Not available.

Snow Depth

Station Depth Elevation

Earthquake Activity

City Distance Mag. Time & Date
Minimum magnitude displayed is 2.5.

Coastal Water Temperatures

Place Temperature

Stations

Nearby Weather Stations

Station Location Temp. Windchill Dew Point Humidity Wind Precip. Elev Updated Type
                   

Watches & Warnings

There are currently no watches in effect.